createdAt,value
2023-03-29T19:38:47.009Z,100739.53
2023-03-29T19:41:14.882Z,100721.91
2023-03-29T19:43:42.709Z,100728.09
2023-03-29T19:46:13.445Z,100720.16
2023-03-29T19:52:30.327Z,100717.38
2023-03-29T19:54:59.674Z,100720.94
2023-03-29T19:57:28.177Z,100721.91
2023-03-29T19:59:56.044Z,100706.03
2023-03-29T20:02:23.782Z,100722.81
2023-03-29T20:04:52.805Z,100721.94
2023-03-29T20:07:20.634Z,100707.88
2023-03-29T20:09:48.483Z,100710.50
2023-03-29T20:12:17.587Z,100708.78
2023-03-29T20:14:45.520Z,100715.88
2023-03-29T20:17:13.223Z,100719.44
2023-03-29T20:19:44.189Z,100718.53
2023-03-29T20:22:12.886Z,100717.63
2023-03-29T20:24:40.715Z,100711.50
2023-03-29T20:27:08.566Z,100714.16
2023-03-29T20:29:37.890Z,100700.91
2023-03-29T20:32:05.844Z,100706.97
2023-03-29T20:34:33.649Z,100708.78
2023-03-29T20:37:01.721Z,100698.97
2023-03-29T20:39:31.289Z,100690.03
2023-03-29T20:42:00.539Z,100684.84
2023-03-29T20:44:28.420Z,100691.13
2023-03-29T20:47:08.576Z,100685.00
2023-03-29T20:49:38.065Z,100685.00
2023-03-29T20:52:08.309Z,100676.22
2023-03-29T20:54:36.972Z,100686.78
2023-03-29T20:57:05.214Z,100685.00
2023-03-29T20:59:34.311Z,100686.72
2023-03-29T21:02:03.434Z,100686.88
2023-03-29T21:04:31.760Z,100674.47
2023-03-29T21:07:02.471Z,100678.06
2023-03-29T21:09:30.997Z,100679.88
2023-03-29T21:11:59.161Z,100685.97
2023-03-29T21:14:26.932Z,100675.47
2023-03-29T21:16:54.941Z,100671.94
2023-03-29T21:19:24.252Z,100673.81
2023-03-29T21:21:52.228Z,100679.19
2023-03-29T21:24:20.324Z,100670.41
2023-03-29T21:26:48.308Z,100680.19
2023-03-29T21:29:16.143Z,100671.28
2023-03-29T21:31:43.886Z,100668.84
2023-03-29T21:34:11.588Z,100668.75
2023-03-29T21:36:42.330Z,100665.97
2023-03-29T21:39:10.132Z,100661.56
2023-03-29T21:41:37.894Z,100673.88
2023-03-29T21:44:05.788Z,100661.69
2023-03-29T21:46:33.784Z,100664.38
2023-03-29T21:49:01.804Z,100659.16
2023-03-29T21:51:29.551Z,100667.88
2023-03-29T21:53:58.871Z,100659.03
2023-03-29T21:56:28.098Z,100659.16
2023-03-29T21:58:56.241Z,100664.47
2023-03-29T22:01:24.085Z,100655.56
2023-03-29T22:03:51.847Z,100666.22
2023-03-29T22:06:19.730Z,100663.63
2023-03-29T22:08:49.649Z,100664.56
2023-03-29T22:11:19.163Z,100658.44
2023-03-29T22:13:47.226Z,100653.16
2023-03-29T22:16:16.884Z,100663.75
2023-03-29T22:18:46.854Z,100663.75
2023-03-29T22:21:16.132Z,100657.44
2023-03-29T22:23:45.529Z,100653.03
2023-03-29T22:26:14.864Z,100658.28
2023-03-29T22:28:44.327Z,100653.97
2023-03-29T22:31:14.444Z,100658.34
2023-03-29T22:33:42.704Z,100650.34
2023-03-29T22:36:15.014Z,100656.47
2023-03-29T22:38:43.029Z,100643.16
2023-03-29T22:41:10.872Z,100648.22
2023-03-29T22:43:38.919Z,100636.50
2023-03-29T22:46:10.164Z,100617.88
2023-03-29T22:48:38.331Z,100620.53
2023-03-29T22:51:06.945Z,100627.44
2023-03-29T22:53:35.339Z,100620.59
2023-03-29T22:56:03.351Z,100634.00
2023-03-29T22:58:31.317Z,100630.66
2023-03-29T23:00:59.175Z,100633.47
2023-03-29T23:03:28.291Z,100645.31
2023-03-29T23:05:57.855Z,100655.13
2023-03-29T23:08:26.608Z,100659.56
2023-03-29T23:10:54.408Z,100662.38
2023-03-29T23:13:25.713Z,100667.63
2023-03-29T23:15:55.099Z,100657.84
2023-03-29T23:18:24.684Z,100666.75
2023-03-29T23:20:55.666Z,100661.41
2023-03-29T23:23:24.948Z,100661.50
2023-03-29T23:25:54.127Z,100657.03
2023-03-29T23:28:24.866Z,100657.84
2023-03-29T23:30:56.931Z,100649.84
2023-03-29T23:33:26.302Z,100642.66
2023-03-29T23:35:55.842Z,100632.13
2023-03-29T23:38:24.199Z,100626.69
2023-03-29T23:40:58.658Z,100620.56
2023-03-29T23:43:27.200Z,100625.03
2023-03-29T23:45:58.697Z,100626.69
2023-03-29T23:48:26.408Z,100621.22
2023-03-29T23:50:57.133Z,100616.81
2023-03-29T23:53:28.284Z,100605.28
2023-03-29T23:55:58.180Z,100612.34
2023-03-29T23:58:26.141Z,100608.84
